Time;durP1;ratioP1;P1;durP2;ratioP2;P2;SDS_P1;SDS_P2;PMS_P1;PMS_P2;Temp;Humidity;BMP_temperature;BMP_pressure;BME280_temperature;BME280_humidity;BME280_pressure;Samples;Min_cycle;Max_cycle;Signal;HPM_P1;HPM_P2
2022/07/14 00:00:25;;;;;;;;;;;9.70;99.90;;;;;;5014750;28;19957;-76
2022/07/14 00:02:51;;;;;;;;;;;9.70;99.90;;;;;;5014524;28;19963;-76
2022/07/14 00:05:18;;;;;;;;;;;9.60;99.90;;;;;;5014671;28;20356;-77
2022/07/14 00:07:45;;;;;;;;;;;9.70;99.90;;;;;;5014783;28;19967;-76
2022/07/14 00:10:11;;;;;;;;;;;9.70;99.90;;;;;;5014485;28;20244;-77
2022/07/14 00:12:38;;;;;;;;;;;9.70;99.90;;;;;;5014600;28;19924;-77
2022/07/14 00:15:05;;;;;;;;;;;9.70;99.90;;;;;;5014335;28;19956;-74
2022/07/14 00:17:32;;;;;;;;;;;9.60;99.90;;;;;;5014601;28;20301;-76
2022/07/14 00:19:58;;;;;;;;;;;9.70;99.90;;;;;;5014468;28;19910;-77
2022/07/14 00:22:27;;;;;;;;;;;9.80;99.90;;;;;;5014467;28;19909;-76
2022/07/14 00:24:54;;;;;;;;;;;9.80;99.90;;;;;;5014172;28;20276;-78
2022/07/14 00:27:21;;;;;;;;;;;9.80;99.90;;;;;;5014173;28;19910;-76
2022/07/14 00:29:48;;;;;;;;;;;9.80;99.90;;;;;;5014180;28;20005;-77
2022/07/14 00:32:15;;;;;;;;;;;9.80;99.90;;;;;;5014175;28;19917;-76
2022/07/14 00:34:41;;;;;;;;;;;9.80;99.90;;;;;;5014206;28;19949;-79
2022/07/14 00:37:08;;;;;;;;;;;9.90;99.90;;;;;;5014078;28;20403;-78
2022/07/14 00:42:27;;;;;;;;;;;10.00;99.90;;;;;;5014506;28;19955;-80
2022/07/14 00:44:54;;;;;;;;;;;10.10;99.90;;;;;;5013725;28;19910;-75
2022/07/14 00:47:20;;;;;;;;;;;10.20;99.90;;;;;;5013980;28;20327;-79
2022/07/14 00:49:47;;;;;;;;;;;10.30;99.90;;;;;;5013053;28;19918;-79
2022/07/14 00:52:14;;;;;;;;;;;10.40;99.90;;;;;;5013847;28;20015;-80
2022/07/14 00:54:40;;;;;;;;;;;10.50;99.90;;;;;;5013843;28;19909;-79
2022/07/14 00:57:07;;;;;;;;;;;10.80;99.90;;;;;;5013623;28;19913;-76
2022/07/14 00:59:34;;;;;;;;;;;10.90;99.90;;;;;;5013841;28;20326;-79
2022/07/14 01:02:00;;;;;;;;;;;10.90;99.90;;;;;;5014056;28;19909;-79
2022/07/14 01:04:27;;;;;;;;;;;11.00;99.90;;;;;;5013758;28;20012;-79
2022/07/14 01:06:54;;;;;;;;;;;11.00;99.90;;;;;;5013826;28;19917;-76
2022/07/14 01:09:20;;;;;;;;;;;11.10;99.90;;;;;;5013675;28;19914;-75
2022/07/14 01:11:47;;;;;;;;;;;11.10;99.90;;;;;;5013796;28;19917;-76
2022/07/14 01:14:18;;;;;;;;;;;11.20;99.90;;;;;;5013677;28;19920;-78
2022/07/14 01:16:46;;;;;;;;;;;11.20;99.90;;;;;;5014122;28;19920;-85
2022/07/14 01:19:12;;;;;;;;;;;11.20;99.90;;;;;;5014067;28;20271;-76
2022/07/14 01:21:39;;;;;;;;;;;11.10;99.90;;;;;;5013482;28;20024;-77
2022/07/14 01:24:06;;;;;;;;;;;11.20;99.90;;;;;;5013607;28;19910;-78
2022/07/14 01:26:33;;;;;;;;;;;11.20;99.90;;;;;;5013674;28;19948;-76
2022/07/14 01:29:00;;;;;;;;;;;11.30;99.90;;;;;;5013446;28;19948;-81
2022/07/14 01:31:26;;;;;;;;;;;11.40;99.90;;;;;;5013656;28;19956;-75
2022/07/14 01:33:53;;;;;;;;;;;11.40;99.90;;;;;;5013469;28;19921;-80
2022/07/14 01:36:20;;;;;;;;;;;11.50;99.90;;;;;;5013462;28;19945;-77
2022/07/14 01:38:47;;;;;;;;;;;11.80;99.90;;;;;;5013321;28;19910;-80
2022/07/14 01:41:13;;;;;;;;;;;12.10;99.90;;;;;;5013417;28;19918;-77
2022/07/14 01:43:41;;;;;;;;;;;12.20;99.90;;;;;;5012180;28;19916;-77
2022/07/14 01:46:08;;;;;;;;;;;12.30;99.90;;;;;;5013200;28;20372;-77
2022/07/14 01:48:35;;;;;;;;;;;12.30;99.90;;;;;;5028510;28;19999;-82
2022/07/14 01:51:01;;;;;;;;;;;12.40;99.90;;;;;;5013138;28;19913;-80
2022/07/14 01:53:28;;;;;;;;;;;12.30;99.90;;;;;;5013147;28;20430;-75
2022/07/14 01:55:55;;;;;;;;;;;12.40;99.90;;;;;;5013159;28;20007;-79
2022/07/14 01:58:21;;;;;;;;;;;12.30;99.90;;;;;;5013422;28;19909;-78
2022/07/14 02:01:39;;;;;;;;;;;12.40;99.90;;;;;;5013794;28;19914;-74
2022/07/14 02:03:35;;;;;;;;;;;12.50;99.90;;;;;;5016473;28;19964;-77
2022/07/14 02:06:03;;;;;;;;;;;12.50;99.90;;;;;;5016376;28;20205;-80
2022/07/14 02:08:29;;;;;;;;;;;12.50;99.90;;;;;;5016007;28;19964;-81
2022/07/14 02:13:41;;;;;;;;;;;12.50;99.90;;;;;;5016466;28;19964;-80
2022/07/14 02:16:08;;;;;;;;;;;12.50;99.90;;;;;;5016125;28;19910;-84
2022/07/14 02:18:35;;;;;;;;;;;12.60;99.90;;;;;;5016682;28;20035;-85
2022/07/14 02:21:01;;;;;;;;;;;12.60;99.90;;;;;;5016022;28;20262;-82
2022/07/14 02:23:28;;;;;;;;;;;12.70;99.90;;;;;;5015997;28;19910;-80
2022/07/14 02:25:55;;;;;;;;;;;12.70;99.90;;;;;;5016056;28;20328;-76
2022/07/14 02:28:22;;;;;;;;;;;12.70;99.90;;;;;;5016430;28;19916;-75
2022/07/14 02:30:49;;;;;;;;;;;12.60;99.90;;;;;;5015873;28;19937;-77
2022/07/14 02:33:15;;;;;;;;;;;12.60;99.90;;;;;;5015704;28;19975;-74
2022/07/14 02:35:42;;;;;;;;;;;12.70;99.90;;;;;;5015881;28;19909;-74
2022/07/14 02:38:09;;;;;;;;;;;12.80;99.90;;;;;;5016008;28;20398;-74
2022/07/14 02:40:35;;;;;;;;;;;12.90;99.90;;;;;;5015785;28;19913;-74
2022/07/14 02:43:02;;;;;;;;;;;12.90;99.90;;;;;;5015748;28;20020;-79
2022/07/14 02:45:29;;;;;;;;;;;12.90;99.90;;;;;;5015826;28;19962;-74
2022/07/14 02:47:55;;;;;;;;;;;12.80;99.90;;;;;;5015856;28;20422;-74
2022/07/14 02:50:22;;;;;;;;;;;12.80;99.90;;;;;;5016189;28;19909;-80
2022/07/14 02:52:49;;;;;;;;;;;12.70;99.90;;;;;;5016227;28;20428;-78
2022/07/14 02:55:16;;;;;;;;;;;12.70;99.90;;;;;;5016397;28;19909;-76
2022/07/14 02:57:43;;;;;;;;;;;12.60;99.90;;;;;;5016249;28;20302;-77
2022/07/14 03:00:10;;;;;;;;;;;12.50;99.90;;;;;;5016137;28;19917;-79
2022/07/14 03:02:36;;;;;;;;;;;12.50;99.90;;;;;;5016364;28;19916;-82
2022/07/14 03:05:04;;;;;;;;;;;12.50;99.90;;;;;;5015652;28;19972;-77
2022/07/14 03:07:33;;;;;;;;;;;12.60;99.90;;;;;;5016240;28;19909;-80
2022/07/14 03:10:00;;;;;;;;;;;12.70;99.90;;;;;;5014829;28;19933;-74
2022/07/14 03:12:27;;;;;;;;;;;12.70;99.90;;;;;;4994589;28;19925;-78
2022/07/14 03:14:53;;;;;;;;;;;12.80;99.90;;;;;;5011354;28;19909;-77
2022/07/14 03:17:20;;;;;;;;;;;12.80;99.90;;;;;;5015785;28;20370;-77
2022/07/14 03:19:47;;;;;;;;;;;12.80;99.90;;;;;;5015921;28;19952;-79
2022/07/14 03:22:13;;;;;;;;;;;12.80;99.90;;;;;;5015949;28;20001;-78
2022/07/14 03:24:40;;;;;;;;;;;12.70;99.90;;;;;;5015334;28;19909;-83
2022/07/14 03:27:08;;;;;;;;;;;12.80;99.90;;;;;;5014083;28;20284;-81
2022/07/14 03:29:34;;;;;;;;;;;12.80;99.90;;;;;;5015405;28;19917;-79
2022/07/14 03:32:01;;;;;;;;;;;12.80;99.90;;;;;;5015382;28;19909;-76
2022/07/14 03:34:29;;;;;;;;;;;12.80;99.90;;;;;;5015395;28;20364;-79
2022/07/14 03:36:57;;;;;;;;;;;12.80;99.90;;;;;;5015353;28;19953;-72
2022/07/14 03:39:23;;;;;;;;;;;12.80;99.90;;;;;;5015187;28;19938;-76
2022/07/14 03:41:50;;;;;;;;;;;12.70;99.90;;;;;;5015241;28;20244;-82
2022/07/14 03:44:17;;;;;;;;;;;12.70;99.90;;;;;;5015344;28;19917;-79
2022/07/14 03:46:43;;;;;;;;;;;12.70;99.90;;;;;;5015579;28;20430;-76
2022/07/14 03:49:10;;;;;;;;;;;12.60;99.90;;;;;;5015274;28;19910;-76
2022/07/14 03:51:43;;;;;;;;;;;12.60;99.90;;;;;;5015318;28;19917;-75
2022/07/14 03:54:11;;;;;;;;;;;12.60;99.90;;;;;;5015104;28;19917;-78
2022/07/14 03:56:37;;;;;;;;;;;12.60;99.90;;;;;;5015304;28;19921;-80
2022/07/14 03:59:04;;;;;;;;;;;12.60;99.90;;;;;;5015385;28;19909;-78
2022/07/14 04:01:31;;;;;;;;;;;12.60;99.90;;;;;;5014998;28;19937;-83
2022/07/14 04:03:58;;;;;;;;;;;12.60;99.90;;;;;;5014883;28;20000;-72
2022/07/14 04:06:25;;;;;;;;;;;12.60;99.90;;;;;;5014842;28;19914;-76
2022/07/14 04:08:51;;;;;;;;;;;12.60;99.90;;;;;;5014723;28;19916;-77
2022/07/14 04:11:18;;;;;;;;;;;12.60;99.90;;;;;;5014847;28;20363;-74
2022/07/14 04:13:45;;;;;;;;;;;12.60;99.90;;;;;;5014894;28;20043;-76
2022/07/14 04:16:12;;;;;;;;;;;12.60;99.90;;;;;;5014713;28;19988;-74
2022/07/14 04:18:39;;;;;;;;;;;12.60;99.90;;;;;;5014769;28;19910;-83
2022/07/14 04:21:07;;;;;;;;;;;12.70;99.90;;;;;;5014529;28;19914;-75
2022/07/14 04:23:34;;;;;;;;;;;12.70;99.90;;;;;;5014485;28;19916;-81
2022/07/14 04:26:02;;;;;;;;;;;12.80;99.90;;;;;;5014745;28;19921;-81
2022/07/14 04:28:28;;;;;;;;;;;12.80;99.90;;;;;;5014366;28;19910;-87
2022/07/14 04:30:55;;;;;;;;;;;12.90;99.90;;;;;;5014207;28;20386;-73
2022/07/14 04:33:22;;;;;;;;;;;12.80;99.90;;;;;;5014434;28;19917;-76
2022/07/14 04:35:49;;;;;;;;;;;12.90;99.90;;;;;;5014610;28;19910;-83
2022/07/14 04:38:15;;;;;;;;;;;12.90;99.90;;;;;;5014362;28;20005;-76
2022/07/14 04:40:48;;;;;;;;;;;12.90;99.90;;;;;;5014310;28;19910;-77
2022/07/14 04:43:16;;;;;;;;;;;12.90;99.90;;;;;;5014056;28;19996;-75
2022/07/14 04:45:43;;;;;;;;;;;12.90;99.90;;;;;;5013914;28;20280;-76
2022/07/14 04:48:10;;;;;;;;;;;13.00;99.90;;;;;;5014083;28;20283;-83
2022/07/14 04:53:21;;;;;;;;;;;13.10;99.90;;;;;;5013984;28;19968;-72
2022/07/14 04:55:48;;;;;;;;;;;13.10;99.90;;;;;;5014136;28;19909;-74
2022/07/14 04:58:14;;;;;;;;;;;13.10;99.90;;;;;;5013875;28;19916;-77
2022/07/14 05:00:41;;;;;;;;;;;13.10;99.90;;;;;;5013942;28;19910;-73
2022/07/14 05:03:08;;;;;;;;;;;13.10;99.90;;;;;;5013407;28;19979;-76
2022/07/14 05:05:35;;;;;;;;;;;13.20;99.90;;;;;;5013489;28;19932;-73
2022/07/14 05:08:02;;;;;;;;;;;13.20;99.90;;;;;;5013690;28;19913;-73
2022/07/14 05:10:29;;;;;;;;;;;13.20;99.90;;;;;;5013893;28;19909;-81
2022/07/14 05:12:55;;;;;;;;;;;13.20;99.90;;;;;;5013912;28;20012;-75
2022/07/14 05:15:22;;;;;;;;;;;13.20;99.90;;;;;;5013854;28;20364;-77
2022/07/14 05:17:49;;;;;;;;;;;13.20;99.90;;;;;;5013621;28;19957;-74
2022/07/14 05:20:15;;;;;;;;;;;13.20;99.90;;;;;;5013613;28;19974;-77
2022/07/14 05:22:42;;;;;;;;;;;13.20;99.90;;;;;;5013474;28;20364;-78
2022/07/14 05:25:10;;;;;;;;;;;13.30;99.90;;;;;;5013451;28;19910;-76
2022/07/14 05:27:37;;;;;;;;;;;13.30;99.90;;;;;;5013618;28;20367;-74
2022/07/14 05:30:05;;;;;;;;;;;13.30;99.90;;;;;;5013494;28;19909;-74
2022/07/14 05:32:31;;;;;;;;;;;13.20;99.90;;;;;;5013516;28;19913;-72
2022/07/14 05:34:58;;;;;;;;;;;13.20;99.90;;;;;;5014240;28;19960;-73
2022/07/14 05:37:25;;;;;;;;;;;13.00;99.90;;;;;;5017456;28;19913;-75
2022/07/14 05:39:52;;;;;;;;;;;13.00;99.90;;;;;;5017488;28;19909;-73
2022/07/14 05:42:22;;;;;;;;;;;13.00;99.90;;;;;;5017524;28;19914;-76
2022/07/14 05:44:49;;;;;;;;;;;13.00;99.90;;;;;;5017496;28;20005;-73
2022/07/14 05:47:16;;;;;;;;;;;13.10;99.90;;;;;;5017227;28;19987;-78
2022/07/14 05:49:43;;;;;;;;;;;13.10;99.90;;;;;;5017342;28;20267;-75
2022/07/14 05:52:13;;;;;;;;;;;13.10;99.90;;;;;;5017148;28;19914;-73
2022/07/14 05:54:40;;;;;;;;;;;13.00;99.90;;;;;;5017427;28;20348;-77
2022/07/14 05:57:10;;;;;;;;;;;13.00;99.90;;;;;;5016977;28;19916;-76
2022/07/14 05:59:37;;;;;;;;;;;13.00;99.90;;;;;;5016923;28;19956;-75
2022/07/14 06:02:04;;;;;;;;;;;13.00;99.90;;;;;;5016954;28;20404;-73
2022/07/14 06:04:30;;;;;;;;;;;13.00;99.90;;;;;;5016871;28;19917;-78
2022/07/14 06:06:57;;;;;;;;;;;13.00;99.90;;;;;;5016553;28;20282;-73
2022/07/14 06:09:24;;;;;;;;;;;13.00;99.90;;;;;;5016926;28;19910;-75
2022/07/14 06:11:51;;;;;;;;;;;13.00;99.90;;;;;;5017036;28;20012;-76
2022/07/14 06:14:17;;;;;;;;;;;12.90;99.90;;;;;;5015570;28;19914;-76
2022/07/14 06:16:44;;;;;;;;;;;12.90;99.90;;;;;;5016621;28;20000;-72
2022/07/14 06:19:11;;;;;;;;;;;12.90;99.90;;;;;;5016789;28;19913;-73
2022/07/14 06:21:37;;;;;;;;;;;12.90;99.90;;;;;;5018485;28;19910;-85
2022/07/14 06:24:04;;;;;;;;;;;12.80;99.90;;;;;;5017191;28;19917;-83
2022/07/14 06:26:31;;;;;;;;;;;12.80;99.90;;;;;;5016975;28;19910;-84
2022/07/14 06:28:58;;;;;;;;;;;12.80;99.90;;;;;;5016523;28;19917;-84
2022/07/14 06:31:24;;;;;;;;;;;12.70;99.90;;;;;;5016587;28;20280;-81
2022/07/14 06:33:51;;;;;;;;;;;12.70;99.90;;;;;;5016617;28;20000;-87
2022/07/14 06:36:18;;;;;;;;;;;12.70;99.90;;;;;;5016526;28;19910;-82
2022/07/14 06:38:44;;;;;;;;;;;12.70;99.90;;;;;;5016511;28;19909;-83
2022/07/14 06:41:11;;;;;;;;;;;12.60;99.90;;;;;;5016215;28;19996;-82
2022/07/14 06:43:38;;;;;;;;;;;12.60;99.90;;;;;;5016382;28;19935;-82
2022/07/14 06:46:07;;;;;;;;;;;12.60;99.90;;;;;;5015358;28;19913;-79
2022/07/14 06:48:34;;;;;;;;;;;12.50;99.90;;;;;;5015932;28;19964;-81
2022/07/14 06:51:04;;;;;;;;;;;12.50;99.90;;;;;;5031109;28;19909;-78
2022/07/14 06:53:31;;;;;;;;;;;12.40;99.90;;;;;;5015754;28;19918;-82
2022/07/14 06:55:57;;;;;;;;;;;12.40;99.90;;;;;;5016047;28;20352;-78
2022/07/14 06:58:24;;;;;;;;;;;12.40;99.90;;;;;;5016027;28;19932;-79
2022/07/14 07:00:51;;;;;;;;;;;12.40;99.90;;;;;;5015728;28;19916;-75
2022/07/14 07:03:17;;;;;;;;;;;12.40;99.90;;;;;;5015933;28;20004;-81
2022/07/14 07:08:28;;;;;;;;;;;12.40;99.90;;;;;;5016015;28;19956;-83
2022/07/14 07:10:56;;;;;;;;;;;12.40;99.90;;;;;;5015666;28;19962;-80
2022/07/14 07:13:23;;;;;;;;;;;12.30;99.90;;;;;;5015659;28;20331;-82
2022/07/14 07:15:50;;;;;;;;;;;12.20;99.90;;;;;;5015434;28;19916;-82
2022/07/14 07:18:17;;;;;;;;;;;12.30;99.90;;;;;;5015488;28;20294;-80
2022/07/14 07:20:44;;;;;;;;;;;12.20;99.90;;;;;;5015556;28;19917;-79
2022/07/14 07:23:14;;;;;;;;;;;12.20;99.90;;;;;;5014503;28;20153;-75
2022/07/14 07:25:41;;;;;;;;;;;12.10;99.90;;;;;;5015577;28;20419;-81
2022/07/14 07:28:08;;;;;;;;;;;12.10;99.90;;;;;;5015613;28;19909;-82
2022/07/14 07:30:34;;;;;;;;;;;12.00;99.90;;;;;;5015400;28;19910;-76
2022/07/14 07:33:01;;;;;;;;;;;12.00;99.90;;;;;;5015092;28;19988;-80
2022/07/14 07:35:28;;;;;;;;;;;12.00;99.90;;;;;;5015254;28;19910;-77
2022/07/14 07:37:54;;;;;;;;;;;11.90;99.90;;;;;;5015120;28;19917;-77
2022/07/14 07:40:21;;;;;;;;;;;11.90;99.90;;;;;;5015248;28;19909;-80
2022/07/14 07:42:48;;;;;;;;;;;11.90;99.90;;;;;;5015267;28;20435;-78
2022/07/14 07:45:15;;;;;;;;;;;11.90;99.90;;;;;;5013566;28;19920;-78
2022/07/14 07:47:41;;;;;;;;;;;11.80;99.90;;;;;;5015016;28;19918;-77
2022/07/14 07:50:10;;;;;;;;;;;11.80;99.90;;;;;;5014925;28;19963;-81
2022/07/14 07:52:37;;;;;;;;;;;11.80;99.90;;;;;;5014761;28;19913;-75
2022/07/14 07:55:09;;;;;;;;;;;11.80;99.90;;;;;;5014544;28;19909;-76
2022/07/14 07:57:36;;;;;;;;;;;11.80;99.90;;;;;;5014536;28;20299;-81
2022/07/14 08:00:06;;;;;;;;;;;11.80;99.90;;;;;;5014949;28;20373;-78
2022/07/14 08:02:33;;;;;;;;;;;11.80;99.90;;;;;;5014802;28;19916;-78
2022/07/14 08:05:00;;;;;;;;;;;11.80;99.90;;;;;;5014341;28;19929;-80
2022/07/14 08:07:27;;;;;;;;;;;11.70;99.90;;;;;;5014533;28;19913;-78
2022/07/14 08:09:54;;;;;;;;;;;11.70;99.90;;;;;;5014727;28;19909;-80
2022/07/14 08:12:20;;;;;;;;;;;11.70;99.90;;;;;;5014676;28;19968;-78
2022/07/14 08:14:50;;;;;;;;;;;11.80;99.90;;;;;;5014593;28;19956;-76
2022/07/14 08:17:17;;;;;;;;;;;11.70;99.90;;;;;;5014557;28;20463;-80
2022/07/14 08:19:43;;;;;;;;;;;11.70;99.90;;;;;;5014458;28;20392;-80
2022/07/14 08:22:45;;;;;;;;;;;11.70;99.90;;;;;;5014258;28;19956;-72
2022/07/14 08:25:17;;;;;;;;;;;11.70;99.90;;;;;;4991940;28;19913;-77
2022/07/14 08:27:44;;;;;;;;;;;11.60;99.90;;;;;;5014390;28;19949;-78
2022/07/14 08:30:11;;;;;;;;;;;11.60;99.90;;;;;;5014416;28;19909;-80
2022/07/14 08:32:38;;;;;;;;;;;11.50;99.90;;;;;;5014213;28;20248;-81
2022/07/14 08:35:06;;;;;;;;;;;11.50;99.90;;;;;;5014022;28;19913;-81
2022/07/14 08:37:33;;;;;;;;;;;11.50;99.90;;;;;;5014206;28;19917;-79
2022/07/14 08:40:01;;;;;;;;;;;11.50;99.90;;;;;;5014292;28;19945;-79
2022/07/14 08:42:29;;;;;;;;;;;11.50;99.90;;;;;;5014116;28;20000;-78
2022/07/14 08:44:56;;;;;;;;;;;11.50;99.90;;;;;;5013866;28;19909;-80
2022/07/14 08:47:23;;;;;;;;;;;11.50;99.90;;;;;;5014104;28;19909;-79
2022/07/14 08:49:49;;;;;;;;;;;11.40;99.90;;;;;;5013987;28;20051;-76
2022/07/14 08:52:17;;;;;;;;;;;11.40;99.90;;;;;;5013863;28;19913;-77
2022/07/14 08:54:47;;;;;;;;;;;11.40;99.90;;;;;;5013761;28;19920;-77
2022/07/14 08:57:14;;;;;;;;;;;11.30;99.90;;;;;;5013861;28;19948;-75
2022/07/14 08:59:41;;;;;;;;;;;11.30;99.90;;;;;;5013974;28;19917;-74
2022/07/14 09:02:07;;;;;;;;;;;11.30;99.90;;;;;;5013986;28;19916;-74
2022/07/14 09:04:34;;;;;;;;;;;11.30;99.90;;;;;;5013263;28;19925;-75
2022/07/14 09:07:01;;;;;;;;;;;11.20;99.90;;;;;;5013330;28;20338;-80
2022/07/14 09:09:30;;;;;;;;;;;11.20;99.90;;;;;;5013024;28;19910;-75
2022/07/14 09:11:58;;;;;;;;;;;11.10;99.90;;;;;;5013580;28;19993;-74
2022/07/14 09:14:26;;;;;;;;;;;11.20;99.90;;;;;;5013693;28;19924;-73
2022/07/14 09:16:53;;;;;;;;;;;11.10;99.90;;;;;;5013544;28;19953;-73
2022/07/14 09:19:21;;;;;;;;;;;11.10;99.90;;;;;;5013659;28;20310;-73
2022/07/14 09:21:54;;;;;;;;;;;11.10;99.90;;;;;;5013330;28;19917;-73
2022/07/14 09:24:22;;;;;;;;;;;11.10;99.90;;;;;;5013421;28;19910;-72
2022/07/14 09:26:50;;;;;;;;;;;11.20;99.90;;;;;;5013491;28;19910;-75
2022/07/14 09:29:25;;;;;;;;;;;11.20;99.90;;;;;;5013362;28;19910;-77
2022/07/14 09:31:52;;;;;;;;;;;11.10;99.90;;;;;;5013513;28;19917;-72
2022/07/14 09:34:29;;;;;;;;;;;11.10;99.90;;;;;;5013567;28;19918;-76
2022/07/14 09:37:11;;;;;;;;;;;11.10;99.90;;;;;;5012964;28;19909;-79
2022/07/14 09:39:50;;;;;;;;;;;11.10;99.90;;;;;;5013309;28;19909;-76
2022/07/14 09:42:17;;;;;;;;;;;11.10;99.90;;;;;;5013502;28;19909;-72
2022/07/14 09:44:44;;;;;;;;;;;11.10;99.90;;;;;;5013394;28;19910;-75
2022/07/14 09:47:11;;;;;;;;;;;11.00;99.90;;;;;;5013119;28;19924;-74
2022/07/14 09:49:40;;;;;;;;;;;11.00;99.90;;;;;;5013335;28;19909;-73
2022/07/14 09:52:07;;;;;;;;;;;11.00;99.90;;;;;;5013030;28;20055;-76
2022/07/14 09:54:47;;;;;;;;;;;11.00;99.90;;;;;;5013328;28;20279;-72
2022/07/14 09:57:14;;;;;;;;;;;10.90;99.90;;;;;;5012801;28;19910;-74
2022/07/14 09:59:43;;;;;;;;;;;10.90;99.90;;;;;;5013189;28;19917;-72
2022/07/14 10:02:21;;;;;;;;;;;10.90;99.90;;;;;;5013182;28;19917;-74
2022/07/14 10:04:48;;;;;;;;;;;10.90;99.90;;;;;;5013143;28;19928;-79
2022/07/14 10:07:15;;;;;;;;;;;10.90;99.90;;;;;;5012935;28;20353;-75
2022/07/14 10:09:44;;;;;;;;;;;10.90;99.90;;;;;;5013204;28;19917;-73
2022/07/14 10:12:11;;;;;;;;;;;10.80;99.90;;;;;;5013177;28;19916;-78
2022/07/14 10:14:38;;;;;;;;;;;10.80;99.90;;;;;;5013153;28;19920;-73
2022/07/14 10:17:05;;;;;;;;;;;10.80;99.90;;;;;;5012949;28;20367;-77
2022/07/14 10:19:32;;;;;;;;;;;10.80;99.90;;;;;;5013058;28;19916;-73
2022/07/14 10:22:00;;;;;;;;;;;10.80;99.90;;;;;;5013369;28;19913;-74
2022/07/14 10:24:28;;;;;;;;;;;10.90;99.90;;;;;;4999288;28;19910;-69
2022/07/14 10:26:55;;;;;;;;;;;10.90;99.90;;;;;;5016429;28;19913;-76
2022/07/14 10:29:22;;;;;;;;;;;10.90;99.90;;;;;;5016458;28;19910;-74
2022/07/14 10:32:01;;;;;;;;;;;11.00;99.90;;;;;;5014466;28;19914;-73
2022/07/14 10:34:31;;;;;;;;;;;11.10;99.90;;;;;;4997200;28;20360;-75
2022/07/14 10:37:01;;;;;;;;;;;11.10;99.90;;;;;;4996669;28;19917;-75
2022/07/14 10:39:28;;;;;;;;;;;11.20;99.90;;;;;;4996831;28;20352;-78
2022/07/14 10:42:12;;;;;;;;;;;11.20;99.90;;;;;;4996876;28;19914;-76
2022/07/14 10:44:43;;;;;;;;;;;11.20;99.90;;;;;;4996861;28;19910;-75
2022/07/14 10:47:11;;;;;;;;;;;11.10;99.90;;;;;;4996542;28;19910;-77
2022/07/14 10:49:56;;;;;;;;;;;11.10;99.90;;;;;;4996783;28;19916;-75
2022/07/14 10:52:26;;;;;;;;;;;11.00;99.90;;;;;;4996590;28;19968;-76
2022/07/14 10:55:12;;;;;;;;;;;10.80;99.90;;;;;;4996381;28;20360;-78
2022/07/14 10:57:39;;;;;;;;;;;10.70;99.90;;;;;;4996377;28;20005;-79
2022/07/14 11:00:06;;;;;;;;;;;10.60;99.90;;;;;;4996702;28;20253;-72
2022/07/14 11:02:34;;;;;;;;;;;10.60;99.90;;;;;;4996476;28;20312;-80
2022/07/14 11:05:12;;;;;;;;;;;10.50;99.90;;;;;;4995868;28;19922;-77
2022/07/14 11:07:52;;;;;;;;;;;10.50;99.90;;;;;;4996306;28;20287;-78
2022/07/14 11:10:19;;;;;;;;;;;10.50;99.90;;;;;;4996565;28;19916;-77
2022/07/14 11:13:01;;;;;;;;;;;10.40;99.90;;;;;;4996202;28;19917;-80
2022/07/14 11:15:39;;;;;;;;;;;10.40;99.90;;;;;;4996211;28;20318;-78
2022/07/14 11:18:21;;;;;;;;;;;10.40;99.90;;;;;;4996137;28;20391;-78
2022/07/14 11:20:52;;;;;;;;;;;10.40;99.90;;;;;;4996024;28;19968;-82
2022/07/14 11:23:22;;;;;;;;;;;10.40;99.90;;;;;;4978645;28;20292;-79
2022/07/14 11:25:50;;;;;;;;;;;10.40;99.90;;;;;;4996053;28;19909;-79
2022/07/14 11:28:32;;;;;;;;;;;10.30;99.90;;;;;;4995950;28;19910;-81
2022/07/14 11:31:16;;;;;;;;;;;10.30;99.90;;;;;;4995574;28;19957;-81
2022/07/14 11:36:33;;;;;;;;;;;10.20;99.90;;;;;;4995939;28;19917;-80
2022/07/14 11:39:15;;;;;;;;;;;10.20;99.90;;;;;;4995688;28;20006;-80
2022/07/14 11:41:44;;;;;;;;;;;10.20;99.90;;;;;;4995757;28;19910;-77
2022/07/14 11:44:39;;;;;;;;;;;10.20;99.90;;;;;;4995838;28;20383;-76
2022/07/14 11:47:21;;;;;;;;;;;10.20;99.90;;;;;;4990786;28;19910;-80
2022/07/14 11:49:55;;;;;;;;;;;10.10;99.90;;;;;;4995406;28;19917;-78
2022/07/14 11:52:26;;;;;;;;;;;10.10;99.90;;;;;;4995547;28;19922;-79
2022/07/14 11:54:56;;;;;;;;;;;10.10;99.90;;;;;;4995320;28;19917;-74
2022/07/14 11:57:23;;;;;;;;;;;10.10;99.90;;;;;;5010457;28;19950;-74
2022/07/14 11:59:50;;;;;;;;;;;10.10;99.90;;;;;;4995502;28;20360;-79
2022/07/14 12:02:19;;;;;;;;;;;10.00;99.90;;;;;;4995473;28;20387;-79
2022/07/14 12:04:49;;;;;;;;;;;9.90;99.90;;;;;;4994922;28;19985;-79
2022/07/14 12:07:16;;;;;;;;;;;10.00;99.90;;;;;;4995389;28;20020;-77
2022/07/14 12:10:02;;;;;;;;;;;9.90;99.90;;;;;;4995442;28;19910;-81
2022/07/14 12:12:38;;;;;;;;;;;9.90;99.90;;;;;;4994698;28;19971;-76
2022/07/14 12:15:05;;;;;;;;;;;9.90;99.90;;;;;;4977658;28;20330;-73
2022/07/14 12:17:32;;;;;;;;;;;9.90;99.90;;;;;;4995118;28;20406;-81
2022/07/14 12:19:59;;;;;;;;;;;9.80;99.90;;;;;;4995025;28;19910;-79
2022/07/14 12:22:28;;;;;;;;;;;9.80;99.90;;;;;;4995001;28;19956;-76
2022/07/14 12:24:57;;;;;;;;;;;9.70;99.90;;;;;;4994857;28;20013;-77
2022/07/14 12:27:25;;;;;;;;;;;9.70;99.90;;;;;;4994900;28;20419;-76
2022/07/14 12:29:53;;;;;;;;;;;9.70;99.90;;;;;;4995148;28;19916;-80
2022/07/14 12:32:24;;;;;;;;;;;9.80;99.90;;;;;;4994859;28;19977;-81
2022/07/14 12:34:51;;;;;;;;;;;9.80;99.90;;;;;;4994672;28;20014;-79
2022/07/14 12:37:18;;;;;;;;;;;9.70;99.90;;;;;;4994867;28;19916;-80
2022/07/14 12:39:45;;;;;;;;;;;9.80;99.90;;;;;;4994904;28;19917;-78
2022/07/14 12:42:12;;;;;;;;;;;9.70;99.90;;;;;;4994789;28;19964;-78
2022/07/14 12:44:58;;;;;;;;;;;9.60;99.90;;;;;;4994867;28;20072;-80
2022/07/14 12:47:25;;;;;;;;;;;9.60;99.90;;;;;;4994689;28;19933;-79
2022/07/14 12:49:52;;;;;;;;;;;9.50;99.90;;;;;;4994457;28;20342;-80
2022/07/14 12:52:19;;;;;;;;;;;9.50;99.90;;;;;;4994478;28;20312;-78
2022/07/14 12:54:45;;;;;;;;;;;9.50;99.90;;;;;;4994631;28;19917;-79
2022/07/14 12:57:19;;;;;;;;;;;9.40;99.90;;;;;;4994384;28;19964;-80
2022/07/14 12:59:46;;;;;;;;;;;9.40;99.90;;;;;;4994513;28;19913;-79
2022/07/14 13:02:19;;;;;;;;;;;9.40;99.90;;;;;;4994529;28;19917;-77
2022/07/14 13:04:47;;;;;;;;;;;9.40;99.90;;;;;;4994053;28;19925;-74
2022/07/14 13:07:15;;;;;;;;;;;9.40;99.90;;;;;;4994146;28;20379;-77
2022/07/14 13:10:00;;;;;;;;;;;9.30;99.90;;;;;;4994296;28;19910;-77
2022/07/14 13:12:28;;;;;;;;;;;9.30;99.90;;;;;;4994255;28;19914;-77
2022/07/14 13:14:56;;;;;;;;;;;9.30;99.90;;;;;;4994171;28;19940;-74
2022/07/14 13:17:42;;;;;;;;;;;9.30;99.90;;;;;;4994246;28;20392;-78
2022/07/14 13:20:27;;;;;;;;;;;9.30;99.90;;;;;;4990206;28;19914;-74
2022/07/14 13:22:57;;;;;;;;;;;9.20;99.90;;;;;;4994024;28;20356;-72
2022/07/14 13:25:24;;;;;;;;;;;9.30;99.90;;;;;;4993926;28;19996;-73
2022/07/14 13:27:51;;;;;;;;;;;9.20;99.90;;;;;;4994084;28;20280;-78
2022/07/14 13:30:17;;;;;;;;;;;9.20;99.90;;;;;;4994136;28;20464;-73
2022/07/14 13:32:44;;;;;;;;;;;9.20;99.90;;;;;;4994038;28;19969;-78
2022/07/14 13:35:11;;;;;;;;;;;9.10;99.90;;;;;;4993675;28;19910;-80
2022/07/14 13:37:38;;;;;;;;;;;9.10;99.90;;;;;;4993995;28;19992;-82
2022/07/14 13:40:04;;;;;;;;;;;9.10;99.90;;;;;;4994056;28;19916;-77
2022/07/14 13:42:31;;;;;;;;;;;9.10;99.90;;;;;;4994054;28;19910;-74
2022/07/14 13:44:58;;;;;;;;;;;9.10;99.90;;;;;;4994132;28;20253;-73
2022/07/14 13:47:24;;;;;;;;;;;9.10;99.90;;;;;;4993881;28;19932;-73
2022/07/14 13:52:41;;;;;;;;;;;9.00;99.90;;;;;;5001706;28;19921;-76
2022/07/14 13:55:08;;;;;;;;;;;9.00;99.90;;;;;;4993710;28;20334;-77
2022/07/14 13:57:35;;;;;;;;;;;9.00;99.90;;;;;;4997445;28;20303;-74
2022/07/14 14:00:01;;;;;;;;;;;9.00;99.90;;;;;;4997872;28;19976;-76
2022/07/14 14:03:22;;;;;;;;;;;9.00;99.90;;;;;;4997714;28;19909;-77
2022/07/14 14:05:14;;;;;;;;;;;9.00;99.90;;;;;;4996996;28;19931;-76
2022/07/14 14:07:41;;;;;;;;;;;8.90;99.90;;;;;;4997628;28;19936;-74
2022/07/14 14:10:08;;;;;;;;;;;8.90;99.90;;;;;;4997718;28;20017;-77
2022/07/14 14:12:36;;;;;;;;;;;8.90;99.90;;;;;;4997301;28;20052;-77
2022/07/14 14:15:03;;;;;;;;;;;8.90;99.90;;;;;;4997318;28;19913;-75
2022/07/14 14:17:30;;;;;;;;;;;8.90;99.90;;;;;;4997342;28;19910;-74
2022/07/14 14:19:57;;;;;;;;;;;8.90;99.90;;;;;;4997238;28;19910;-74
2022/07/14 14:22:23;;;;;;;;;;;8.90;99.90;;;;;;4997331;28;19910;-74
2022/07/14 14:24:50;;;;;;;;;;;8.80;99.90;;;;;;4997396;28;19916;-75
2022/07/14 14:27:17;;;;;;;;;;;8.80;99.90;;;;;;4997374;28;19917;-77
2022/07/14 14:29:44;;;;;;;;;;;8.80;99.90;;;;;;4997157;28;19953;-74
2022/07/14 14:32:10;;;;;;;;;;;8.80;99.90;;;;;;4997157;28;19952;-73
2022/07/14 14:34:37;;;;;;;;;;;8.80;99.90;;;;;;4997046;28;19918;-73
2022/07/14 14:37:04;;;;;;;;;;;8.80;99.90;;;;;;4997156;28;19909;-77
2022/07/14 14:39:30;;;;;;;;;;;8.70;99.90;;;;;;4997042;28;20384;-72
2022/07/14 14:41:57;;;;;;;;;;;8.80;99.90;;;;;;4996893;28;19914;-73
2022/07/14 14:44:24;;;;;;;;;;;8.70;99.90;;;;;;4997161;28;20020;-75